createdAt,value
2022-12-18T00:02:39.682Z,3.00
2022-12-18T00:06:43.083Z,3.95
2022-12-18T00:10:48.200Z,4.43
2022-12-18T00:14:52.196Z,3.17
2022-12-18T00:18:57.648Z,5.13
2022-12-18T00:23:00.322Z,5.00
2022-12-18T00:27:03.021Z,5.28
2022-12-18T00:31:09.316Z,2.60
2022-12-18T00:35:12.199Z,3.13
2022-12-18T00:39:14.823Z,5.15
2022-12-18T00:43:17.532Z,2.90
2022-12-18T00:47:21.588Z,2.65
2022-12-18T00:51:24.246Z,3.85
2022-12-18T00:55:26.915Z,3.67
2022-12-18T00:59:30.956Z,2.35
2022-12-18T01:03:35.368Z,2.95
2022-12-18T01:07:38.130Z,4.35
2022-12-18T01:11:41.898Z,4.38
2022-12-18T01:15:50.679Z,4.32
2022-12-18T01:19:56.625Z,3.28
2022-12-18T01:23:59.297Z,4.18
2022-12-18T01:28:02.687Z,5.18
2022-12-18T01:32:05.851Z,2.95
2022-12-18T01:36:10.937Z,3.78
2022-12-18T01:40:13.998Z,3.92
2022-12-18T01:44:53.726Z,2.88
2022-12-18T01:48:59.901Z,3.33
2022-12-18T01:53:08.055Z,2.13
2022-12-18T01:57:11.145Z,2.33
2022-12-18T02:01:14.382Z,3.25
2022-12-18T02:05:19.840Z,2.95
2022-12-18T02:09:30.800Z,3.92
2022-12-18T02:13:40.689Z,2.88
2022-12-18T02:17:49.776Z,3.00
2022-12-18T02:21:59.414Z,3.10
2022-12-18T02:26:16.504Z,5.45
2022-12-18T02:30:20.740Z,3.50
2022-12-18T02:34:28.132Z,2.63
2022-12-18T02:38:32.523Z,3.40
2022-12-18T02:42:36.792Z,2.70
2022-12-18T02:46:42.176Z,3.25
2022-12-18T02:50:50.883Z,3.20
2022-12-18T02:55:09.052Z,2.70
2022-12-18T02:59:19.795Z,3.00
2022-12-18T03:03:31.415Z,2.83
2022-12-18T03:07:40.011Z,3.15
2022-12-18T03:12:04.991Z,3.10
2022-12-18T03:16:14.081Z,2.88
2022-12-18T03:20:21.738Z,3.83
2022-12-18T03:24:26.261Z,1.98
2022-12-18T03:28:33.578Z,2.47
2022-12-18T03:32:45.178Z,3.72
2022-12-18T03:36:48.079Z,3.42
2022-12-18T03:40:58.062Z,1.90
2022-12-18T03:45:08.987Z,1.95
2022-12-18T03:49:19.404Z,2.78
2022-12-18T03:53:30.917Z,3.47
2022-12-18T03:57:35.139Z,3.20
2022-12-18T04:01:41.980Z,3.53
2022-12-18T04:05:47.729Z,4.03
2022-12-18T04:09:52.244Z,2.63
2022-12-18T04:13:58.309Z,3.05
2022-12-18T04:18:00.989Z,3.35
2022-12-18T04:22:04.996Z,2.47
2022-12-18T04:26:08.074Z,2.95
2022-12-18T04:30:11.504Z,4.05
2022-12-18T04:34:14.173Z,2.42
2022-12-18T04:38:18.213Z,2.50
2022-12-18T04:42:20.838Z,1.85
2022-12-18T04:46:23.560Z,1.85
2022-12-18T04:50:26.316Z,2.67
2022-12-18T04:54:30.330Z,1.70
2022-12-18T04:58:33.000Z,2.85
2022-12-18T05:02:35.828Z,1.98
2022-12-18T05:06:38.528Z,2.50
2022-12-18T05:10:42.608Z,3.97
2022-12-18T05:14:45.239Z,2.17
2022-12-18T05:18:47.891Z,4.22
2022-12-18T05:22:50.630Z,3.08
2022-12-18T05:26:54.615Z,3.38
2022-12-18T05:30:59.352Z,3.38
2022-12-18T05:35:02.047Z,3.28
2022-12-18T05:39:04.983Z,2.05
2022-12-18T05:43:10.079Z,3.80
2022-12-18T05:47:12.765Z,3.35
2022-12-18T05:51:17.353Z,2.28
2022-12-18T05:55:19.980Z,2.22
2022-12-18T05:59:23.935Z,2.63
2022-12-18T06:03:32.187Z,2.42
2022-12-18T06:07:36.396Z,3.33
2022-12-18T06:11:39.515Z,4.70
2022-12-18T06:15:43.550Z,3.88
2022-12-18T06:19:46.150Z,2.60
2022-12-18T06:23:48.829Z,2.58
2022-12-18T06:27:51.467Z,3.17
2022-12-18T06:31:55.587Z,2.70
2022-12-18T06:36:02.677Z,3.78
2022-12-18T06:40:06.236Z,3.42
2022-12-18T06:44:08.915Z,3.85
2022-12-18T06:48:13.556Z,3.00
2022-12-18T06:52:16.175Z,3.47
2022-12-18T06:56:18.863Z,3.97
2022-12-18T07:00:21.506Z,3.78
2022-12-18T07:04:29.872Z,2.78
2022-12-18T07:08:32.685Z,2.50
2022-12-18T07:12:35.432Z,3.13
2022-12-18T07:16:38.117Z,2.78
2022-12-18T07:20:42.105Z,2.40
2022-12-18T07:24:44.749Z,2.65
2022-12-18T07:28:48.200Z,2.63
2022-12-18T07:32:50.833Z,3.72
2022-12-18T07:36:54.835Z,3.50
2022-12-18T07:41:02.563Z,2.53
2022-12-18T07:45:06.056Z,3.75
2022-12-18T07:49:09.020Z,3.22
2022-12-18T07:53:13.033Z,4.55
2022-12-18T07:57:48.442Z,2.42
2022-12-18T08:01:40.177Z,3.65
2022-12-18T08:05:42.928Z,2.40
2022-12-18T08:09:46.921Z,4.22
2022-12-18T08:13:49.673Z,3.17
2022-12-18T08:17:52.509Z,2.97
2022-12-18T08:21:55.229Z,2.03
2022-12-18T08:26:00.271Z,0.90
2022-12-18T08:30:03.833Z,0.10
2022-12-18T08:34:07.026Z,0.93
2022-12-18T08:38:09.623Z,1.13
2022-12-18T08:42:30.919Z,0.52
2022-12-18T08:46:37.214Z,1.73
2022-12-18T08:50:39.980Z,0.20
2022-12-18T08:54:42.636Z,1.02
2022-12-18T08:58:46.658Z,0.85
2022-12-18T09:02:49.395Z,0.60
2022-12-18T09:06:52.325Z,1.77
2022-12-18T09:10:55.247Z,3.50
2022-12-18T09:14:59.345Z,0.85
2022-12-18T09:19:02.895Z,1.58
2022-12-18T09:23:06.305Z,1.25
2022-12-18T09:27:08.954Z,1.92
2022-12-18T09:31:18.100Z,0.98
2022-12-18T09:35:20.832Z,0.90
2022-12-18T09:39:24.420Z,2.47
2022-12-18T09:43:32.563Z,1.10
2022-12-18T09:47:41.313Z,0.77
2022-12-18T09:51:49.335Z,0.43
2022-12-18T09:55:54.085Z,0.30
2022-12-18T10:00:01.183Z,1.38
2022-12-18T10:04:07.531Z,0.82
2022-12-18T10:08:15.660Z,0.45
2022-12-18T10:12:26.721Z,0.57
2022-12-18T10:16:42.627Z,0.55
2022-12-18T10:20:51.200Z,0.10
2022-12-18T10:25:00.736Z,1.30
2022-12-18T10:29:05.800Z,0.63
2022-12-18T10:33:13.395Z,0.45
2022-12-18T10:37:20.406Z,1.48
2022-12-18T10:41:27.827Z,1.67
2022-12-18T10:45:32.144Z,1.40
2022-12-18T10:49:37.020Z,1.55
2022-12-18T10:53:43.706Z,0.25
2022-12-18T10:57:46.513Z,1.02
2022-12-18T11:01:52.188Z,2.35
2022-12-18T11:06:04.357Z,1.15
2022-12-18T11:10:19.370Z,0.75
2022-12-18T11:14:25.462Z,0.77
2022-12-18T11:18:31.816Z,0.75
2022-12-18T11:22:37.155Z,3.22
2022-12-18T11:26:44.264Z,1.65
2022-12-18T11:30:47.577Z,1.25
2022-12-18T11:34:59.032Z,1.40
2022-12-18T11:39:07.931Z,0.40
2022-12-18T11:43:16.907Z,0.82
2022-12-18T11:47:29.379Z,0.35
2022-12-18T11:51:37.300Z,0.40
2022-12-18T11:55:49.562Z,1.45
2022-12-18T12:00:02.091Z,1.85
2022-12-18T12:04:26.954Z,2.95
2022-12-18T12:08:42.812Z,0.95
2022-12-18T12:13:06.527Z,1.65
2022-12-18T12:17:19.972Z,1.90
2022-12-18T12:21:30.569Z,0.75
2022-12-18T12:25:42.749Z,1.98
2022-12-18T12:29:57.125Z,1.55
2022-12-18T12:34:10.841Z,1.52
2022-12-18T12:38:17.878Z,0.50
2022-12-18T12:42:50.789Z,1.20
2022-12-18T12:46:54.670Z,0.25
2022-12-18T12:51:00.504Z,1.48
2022-12-18T12:55:10.267Z,1.00
2022-12-18T12:59:25.149Z,0.68
2022-12-18T13:03:43.291Z,1.08
2022-12-18T13:07:54.186Z,0.73
2022-12-18T13:12:22.376Z,2.05
2022-12-18T13:16:26.879Z,1.25
2022-12-18T13:20:36.596Z,1.15
2022-12-18T13:24:40.623Z,0.30
2022-12-18T13:28:55.920Z,0.93
2022-12-18T13:34:02.019Z,2.28
2022-12-18T13:38:22.357Z,1.10
2022-12-18T13:42:59.915Z,1.73
2022-12-18T13:47:04.572Z,1.33
2022-12-18T13:51:10.070Z,0.15
2022-12-18T13:55:20.358Z,1.00
2022-12-18T13:59:26.446Z,1.45
2022-12-18T14:03:31.352Z,0.65
2022-12-18T14:07:39.914Z,1.80
2022-12-18T14:12:16.302Z,1.33
2022-12-18T14:16:22.173Z,1.50
2022-12-18T14:20:26.203Z,1.05
2022-12-18T14:24:38.325Z,1.48
2022-12-18T14:28:45.583Z,1.13
2022-12-18T14:33:03.787Z,0.65
2022-12-18T14:37:07.916Z,1.40
2022-12-18T14:41:15.580Z,0.63
2022-12-18T14:45:43.431Z,0.47
2022-12-18T14:49:47.794Z,1.23
2022-12-18T14:53:56.190Z,1.35
2022-12-18T14:57:59.773Z,1.13
2022-12-18T15:02:11.505Z,1.65
2022-12-18T15:06:26.278Z,1.08
2022-12-18T15:10:31.900Z,0.95
2022-12-18T15:14:40.618Z,0.95
2022-12-18T15:18:46.119Z,3.08
2022-12-18T15:22:50.221Z,3.00
2022-12-18T15:26:52.945Z,1.42
2022-12-18T15:31:07.984Z,1.27
2022-12-18T15:35:16.833Z,2.35
2022-12-18T15:39:20.867Z,1.38
2022-12-18T15:43:37.742Z,2.42
2022-12-18T15:47:40.732Z,2.05
2022-12-18T15:51:43.510Z,1.88
2022-12-18T15:56:06.910Z,1.38
2022-12-18T16:00:14.187Z,0.98
2022-12-18T16:04:19.515Z,2.28
2022-12-18T16:08:22.256Z,0.88
2022-12-18T16:12:26.513Z,0.50
2022-12-18T16:16:29.245Z,1.00
2022-12-18T16:20:32.598Z,1.30
2022-12-18T16:24:37.070Z,0.90
2022-12-18T16:28:45.299Z,3.50
2022-12-18T16:32:51.490Z,2.85
2022-12-18T16:36:56.209Z,1.40
2022-12-18T16:45:23.564Z,0.98
2022-12-18T16:49:26.222Z,1.35
2022-12-18T16:53:29.968Z,0.40
2022-12-18T16:57:32.751Z,1.23
2022-12-18T17:01:36.907Z,2.03
2022-12-18T17:05:39.637Z,1.35
2022-12-18T17:09:42.376Z,0.90
2022-12-18T17:13:45.204Z,1.27
2022-12-18T17:17:50.266Z,1.38
2022-12-18T17:21:53.221Z,1.00
2022-12-18T17:25:57.109Z,2.08
2022-12-18T17:29:59.743Z,1.50
2022-12-18T17:34:04.677Z,1.90
2022-12-18T17:38:07.361Z,1.65
2022-12-18T17:42:14.956Z,0.98
2022-12-18T17:46:18.427Z,2.38
2022-12-18T17:50:22.443Z,2.33
2022-12-18T17:54:25.183Z,2.40
2022-12-18T17:58:28.112Z,3.15
2022-12-18T18:02:31.145Z,1.77
2022-12-18T18:06:36.272Z,3.10
2022-12-18T18:10:42.738Z,3.33
2022-12-18T18:14:45.382Z,0.88
2022-12-18T18:18:48.347Z,1.05
2022-12-18T18:22:52.488Z,0.50
2022-12-18T18:26:59.523Z,1.08
2022-12-18T18:31:05.985Z,0.93
2022-12-18T18:35:19.347Z,1.45
2022-12-18T18:39:33.554Z,0.77
2022-12-18T18:43:36.939Z,0.52
2022-12-18T18:47:39.557Z,1.02
2022-12-18T18:51:42.960Z,0.25
2022-12-18T18:55:55.155Z,0.00
2022-12-18T19:00:08.123Z,0.10
2022-12-18T19:04:11.176Z,0.15
2022-12-18T19:08:13.800Z,0.93
2022-12-18T19:12:38.468Z,1.10
2022-12-18T19:16:45.450Z,0.50
2022-12-18T19:20:56.596Z,0.57
2022-12-18T19:24:59.470Z,0.85
2022-12-18T19:29:04.369Z,0.95
2022-12-18T19:33:26.770Z,2.75
2022-12-18T19:37:30.311Z,1.15
2022-12-18T19:41:33.073Z,0.38
2022-12-18T19:45:39.758Z,1.13
2022-12-18T19:49:42.559Z,0.15
2022-12-18T19:53:45.868Z,2.60
2022-12-18T19:57:48.782Z,1.63
2022-12-18T20:01:54.829Z,1.00
2022-12-18T20:05:58.042Z,0.55
2022-12-18T20:10:08.484Z,0.88
2022-12-18T20:14:12.518Z,1.90
2022-12-18T20:18:16.588Z,1.08
2022-12-18T20:22:20.466Z,3.45
2022-12-18T20:26:23.265Z,0.88
2022-12-18T20:30:26.151Z,1.92
2022-12-18T20:34:30.361Z,2.90
2022-12-18T20:38:34.543Z,1.05
2022-12-18T20:42:37.799Z,0.28
2022-12-18T20:46:40.495Z,2.17
2022-12-18T20:50:44.470Z,0.73
2022-12-18T20:54:47.278Z,1.50
2022-12-18T20:58:51.300Z,0.85
2022-12-18T21:02:57.903Z,1.38
2022-12-18T21:07:02.954Z,0.63
2022-12-18T21:11:30.771Z,0.35
2022-12-18T21:15:33.552Z,1.55
2022-12-18T21:19:36.500Z,1.58
2022-12-18T21:23:40.582Z,0.70
2022-12-18T21:27:43.247Z,0.98
2022-12-18T21:31:46.557Z,2.08
2022-12-18T21:35:49.291Z,0.25
2022-12-18T21:39:53.366Z,1.08
2022-12-18T21:44:08.200Z,1.10
2022-12-18T21:48:12.174Z,0.80
2022-12-18T21:52:14.949Z,2.15
2022-12-18T21:56:19.029Z,0.70
2022-12-18T22:00:21.835Z,0.35
2022-12-18T22:04:25.605Z,1.45
2022-12-18T22:08:28.497Z,1.50
2022-12-18T22:12:44.219Z,1.48
2022-12-18T22:16:48.986Z,0.80
2022-12-18T22:21:01.982Z,0.30
2022-12-18T22:25:05.071Z,1.23
2022-12-18T22:29:44.109Z,1.88
2022-12-18T22:33:46.769Z,0.70
2022-12-18T22:37:49.509Z,0.80
2022-12-18T22:41:52.888Z,0.95
2022-12-18T22:45:56.936Z,1.33
2022-12-18T22:49:59.895Z,0.10
2022-12-18T22:54:02.503Z,1.63
2022-12-18T22:58:05.183Z,1.15
2022-12-18T23:02:09.474Z,2.05
2022-12-18T23:06:12.409Z,0.47
2022-12-18T23:10:15.047Z,1.35
2022-12-18T23:14:17.978Z,0.75
2022-12-18T23:18:22.378Z,2.30
2022-12-18T23:22:25.006Z,2.00
2022-12-18T23:26:28.554Z,0.75
2022-12-18T23:30:32.448Z,0.55
2022-12-18T23:34:36.543Z,0.63
2022-12-18T23:38:39.829Z,0.88
2022-12-18T23:42:42.455Z,1.38
2022-12-18T23:46:45.112Z,0.20
2022-12-18T23:50:49.112Z,0.63
2022-12-18T23:54:51.765Z,1.70
2022-12-18T23:58:54.497Z,1.42
